Airfield :
LOGIN :

Register | Disclaimer

   EN    FR    IT 

 










Legend :    VFR   Marginal VFR   IFR   Intensive IFR   Very Intensive IFR
Visi :
Ceiling :
>= 8 km
>= 3000ft
5 to 8 km
1000 to 3000 ft
1500m to 5 km
500 to 1000 ft
800 to 1500m
200 to 500 ft
< 800m
< 200 ft
Symbols :   Thunderstorms  Fog  Heavy snow  Heavy precipitations  Wind > 20 kt
SIGMETs :     Misc.  Thunderstorms  Icing  Turbulence  Mountain Waves  Volcanic Ashes







- Airport Elevation : 388 ft
- IATA code : QYR
- Download approach charts


LFQB - Troyes Barberey

CURRENT METAR :
  • 231330Z AUTO 23021KT 9999 SCT026/// BKN032/// BKN170/// ///TCU 23/19 Q1012

EXPIRED METARs :
  • 231300Z AUTO 23021KT 9999 BKN028 BKN033 BKN041 22/19 Q1012
  • 231230Z AUTO 22022KT 9999 FEW025 22/19 Q1013
  • 231200Z AUTO 21020KT 9999 FEW025 22/19 Q1013
  • 231130Z AUTO 21016KT 9999 SCT010 BKN020 BKN031 21/20 Q1014
  • 231100Z AUTO 21014KT 7000 -DZ BKN012 BKN018 20/19 Q1014

TAF N/A
No reported NOTAMs for that airfield.
2 SIGMETs reported for the Paris FIR (LFFF) :
 
Severe turbulence
LFFF SIGMET 2 VALID 231200/231600 LFPW
LFFF PARIS FIR/UIR SEV TURB FCST WI N5030 E00345 - N4930 E00600 - N4900 E00500 - N4945 E00300 - N5030 E00345 SFC/FL050 STNR NC=
Severe turbulence
LFFF SIGMET 1 VALID 231100/231500 LFPW
LFFF PARIS FIR/UIR SEV TURB FCST WI N4945 W00015 - N5000 W00015 - N5030 E00030 - N4945 W00015 FL350/430 STNR NC=



MET'MAP, your aeronautical weather chart ! - Copyright ORBIFLY December 2007 - Disclaimer

ORBIFLY MET'MAP TEAM :

Programming & Development : Alexandra Zaïnal
Concept & Development : Baudouin d'Aumeries
Co-Development & Prog : Marc-Olivier Méhu
Technical & hardware support : Manuel Goepfert

Contact : metmap@orbifly.com




SOURCES & CREDITS :

   NOAA